sensor_id;sensor_type;location;lat;lon;timestamp;P1;durP1;ratioP1;P2;durP2;ratioP2
1336;SDS011;662;48.814;9.318;2022-10-04T00:00:22;7.60;;;6.97;;
1336;SDS011;662;48.814;9.318;2022-10-04T00:02:55;12.77;;;6.47;;
1336;SDS011;662;48.814;9.318;2022-10-04T00:05:29;7.30;;;6.63;;
1336;SDS011;662;48.814;9.318;2022-10-04T00:07:56;9.10;;;6.30;;
1336;SDS011;662;48.814;9.318;2022-10-04T00:10:42;17.30;;;7.00;;
1336;SDS011;662;48.814;9.318;2022-10-04T00:13:13;33.67;;;7.60;;
1336;SDS011;662;48.814;9.318;2022-10-04T00:15:46;31.40;;;8.60;;
1336;SDS011;662;48.814;9.318;2022-10-04T00:18:20;58.43;;;9.83;;
1336;SDS011;662;48.814;9.318;2022-10-04T00:21:03;34.00;;;9.03;;
1336;SDS011;662;48.814;9.318;2022-10-04T00:26:03;10.60;;;7.30;;
1336;SDS011;662;48.814;9.318;2022-10-04T00:33:44;7.73;;;7.13;;
1336;SDS011;662;48.814;9.318;2022-10-04T00:36:40;25.17;;;7.57;;
1336;SDS011;662;48.814;9.318;2022-10-04T00:44:18;42.10;;;7.47;;
1336;SDS011;662;48.814;9.318;2022-10-04T00:47:12;42.87;;;7.60;;
1336;SDS011;662;48.814;9.318;2022-10-04T00:50:02;6.80;;;6.10;;
1336;SDS011;662;48.814;9.318;2022-10-04T00:52:53;22.03;;;7.27;;
1336;SDS011;662;48.814;9.318;2022-10-04T00:58:14;15.33;;;6.30;;
1336;SDS011;662;48.814;9.318;2022-10-04T01:00:56;46.83;;;7.80;;
1336;SDS011;662;48.814;9.318;2022-10-04T01:03:27;24.23;;;7.00;;
1336;SDS011;662;48.814;9.318;2022-10-04T01:05:58;14.53;;;6.80;;
1336;SDS011;662;48.814;9.318;2022-10-04T01:08:31;10.23;;;6.40;;
1336;SDS011;662;48.814;9.318;2022-10-04T01:11:05;23.57;;;7.17;;
1336;SDS011;662;48.814;9.318;2022-10-04T01:13:41;23.27;;;7.53;;
1336;SDS011;662;48.814;9.318;2022-10-04T01:16:17;29.53;;;7.07;;
1336;SDS011;662;48.814;9.318;2022-10-04T01:18:47;35.00;;;7.37;;
1336;SDS011;662;48.814;9.318;2022-10-04T01:28:54;15.80;;;5.70;;
1336;SDS011;662;48.814;9.318;2022-10-04T01:31:25;12.87;;;5.40;;
1336;SDS011;662;48.814;9.318;2022-10-04T01:33:55;10.10;;;5.63;;
1336;SDS011;662;48.814;9.318;2022-10-04T01:36:21;15.40;;;5.63;;
1336;SDS011;662;48.814;9.318;2022-10-04T01:38:47;27.37;;;6.20;;
1336;SDS011;662;48.814;9.318;2022-10-04T01:41:15;22.30;;;5.90;;
1336;SDS011;662;48.814;9.318;2022-10-04T01:43:45;8.20;;;5.57;;
1336;SDS011;662;48.814;9.318;2022-10-04T01:46:30;12.23;;;6.30;;
1336;SDS011;662;48.814;9.318;2022-10-04T01:48:59;16.50;;;6.53;;
1336;SDS011;662;48.814;9.318;2022-10-04T01:52:33;13.27;;;5.57;;
1336;SDS011;662;48.814;9.318;2022-10-04T01:54:42;9.53;;;5.30;;
1336;SDS011;662;48.814;9.318;2022-10-04T01:57:16;19.17;;;6.33;;
1336;SDS011;662;48.814;9.318;2022-10-04T01:59:44;26.63;;;6.80;;
1336;SDS011;662;48.814;9.318;2022-10-04T02:02:21;27.80;;;6.90;;
1336;SDS011;662;48.814;9.318;2022-10-04T02:05:27;22.43;;;6.57;;
1336;SDS011;662;48.814;9.318;2022-10-04T02:08:04;13.33;;;6.20;;
1336;SDS011;662;48.814;9.318;2022-10-04T02:10:36;18.67;;;5.77;;
1336;SDS011;662;48.814;9.318;2022-10-04T02:13:08;10.77;;;6.53;;
1336;SDS011;662;48.814;9.318;2022-10-04T02:15:38;10.20;;;6.00;;
1336;SDS011;662;48.814;9.318;2022-10-04T02:18:14;11.77;;;6.10;;
1336;SDS011;662;48.814;9.318;2022-10-04T02:20:41;28.70;;;6.50;;
1336;SDS011;662;48.814;9.318;2022-10-04T02:23:09;8.30;;;5.30;;
1336;SDS011;662;48.814;9.318;2022-10-04T02:25:36;14.83;;;5.70;;
1336;SDS011;662;48.814;9.318;2022-10-04T02:28:02;13.73;;;5.50;;
1336;SDS011;662;48.814;9.318;2022-10-04T02:30:34;31.37;;;6.90;;
1336;SDS011;662;48.814;9.318;2022-10-04T02:33:01;18.17;;;7.13;;
1336;SDS011;662;48.814;9.318;2022-10-04T02:35:33;17.00;;;9.00;;
1336;SDS011;662;48.814;9.318;2022-10-04T02:43:32;12.50;;;7.70;;
1336;SDS011;662;48.814;9.318;2022-10-04T02:46:11;14.37;;;9.00;;
1336;SDS011;662;48.814;9.318;2022-10-04T02:48:48;17.00;;;7.60;;
1336;SDS011;662;48.814;9.318;2022-10-04T02:51:27;12.30;;;7.30;;
1336;SDS011;662;48.814;9.318;2022-10-04T02:56:34;12.33;;;7.10;;
1336;SDS011;662;48.814;9.318;2022-10-04T02:59:02;6.97;;;6.27;;
1336;SDS011;662;48.814;9.318;2022-10-04T03:01:39;6.80;;;6.10;;
1336;SDS011;662;48.814;9.318;2022-10-04T03:04:11;10.17;;;6.47;;
1336;SDS011;662;48.814;9.318;2022-10-04T03:06:39;9.27;;;5.53;;
1336;SDS011;662;48.814;9.318;2022-10-04T03:09:07;11.23;;;5.93;;
1336;SDS011;662;48.814;9.318;2022-10-04T03:11:34;9.93;;;5.70;;
1336;SDS011;662;48.814;9.318;2022-10-04T03:14:02;32.03;;;6.73;;
1336;SDS011;662;48.814;9.318;2022-10-04T03:16:33;26.60;;;6.97;;
1336;SDS011;662;48.814;9.318;2022-10-04T03:19:02;62.83;;;8.13;;
1336;SDS011;662;48.814;9.318;2022-10-04T03:21:29;37.17;;;7.43;;
1336;SDS011;662;48.814;9.318;2022-10-04T03:23:57;65.67;;;8.10;;
1336;SDS011;662;48.814;9.318;2022-10-04T03:26:28;59.50;;;7.70;;
1336;SDS011;662;48.814;9.318;2022-10-04T03:29:02;24.27;;;6.03;;
1336;SDS011;662;48.814;9.318;2022-10-04T03:31:35;33.40;;;6.37;;
1336;SDS011;662;48.814;9.318;2022-10-04T03:34:11;24.73;;;6.73;;
1336;SDS011;662;48.814;9.318;2022-10-04T03:37:00;11.90;;;5.17;;
1336;SDS011;662;48.814;9.318;2022-10-04T03:39:28;21.93;;;6.20;;
1336;SDS011;662;48.814;9.318;2022-10-04T03:41:57;15.60;;;5.90;;
1336;SDS011;662;48.814;9.318;2022-10-04T03:44:26;6.30;;;4.60;;
1336;SDS011;662;48.814;9.318;2022-10-04T03:46:52;16.27;;;5.27;;
1336;SDS011;662;48.814;9.318;2022-10-04T03:49:24;8.70;;;4.40;;
1336;SDS011;662;48.814;9.318;2022-10-04T03:51:56;8.50;;;4.40;;
1336;SDS011;662;48.814;9.318;2022-10-04T03:54:23;8.03;;;5.00;;
1336;SDS011;662;48.814;9.318;2022-10-04T03:56:52;9.13;;;4.70;;
1336;SDS011;662;48.814;9.318;2022-10-04T03:59:19;7.20;;;5.00;;
1336;SDS011;662;48.814;9.318;2022-10-04T04:01:56;10.93;;;6.60;;
1336;SDS011;662;48.814;9.318;2022-10-04T04:10:05;8.07;;;7.37;;
1336;SDS011;662;48.814;9.318;2022-10-04T04:12:52;6.97;;;6.00;;
1336;SDS011;662;48.814;9.318;2022-10-04T04:15:33;62.40;;;8.20;;
1336;SDS011;662;48.814;9.318;2022-10-04T04:18:00;36.03;;;6.40;;
1336;SDS011;662;48.814;9.318;2022-10-04T04:20:34;20.53;;;5.07;;
1336;SDS011;662;48.814;9.318;2022-10-04T04:25:49;5.40;;;4.80;;
1336;SDS011;662;48.814;9.318;2022-10-04T04:28:23;13.70;;;5.20;;
1336;SDS011;662;48.814;9.318;2022-10-04T04:31:08;12.50;;;5.40;;
1336;SDS011;662;48.814;9.318;2022-10-04T04:33:58;6.20;;;4.53;;
1336;SDS011;662;48.814;9.318;2022-10-04T04:36:26;4.80;;;4.50;;
1336;SDS011;662;48.814;9.318;2022-10-04T04:38:53;4.40;;;4.07;;
1336;SDS011;662;48.814;9.318;2022-10-04T04:41:48;4.90;;;4.40;;
1336;SDS011;662;48.814;9.318;2022-10-04T04:44:15;5.97;;;5.37;;
1336;SDS011;662;48.814;9.318;2022-10-04T04:46:43;7.07;;;5.40;;
1336;SDS011;662;48.814;9.318;2022-10-04T04:49:12;16.20;;;5.83;;
1336;SDS011;662;48.814;9.318;2022-10-04T04:51:41;22.03;;;5.77;;
1336;SDS011;662;48.814;9.318;2022-10-04T04:54:12;22.90;;;5.83;;
1336;SDS011;662;48.814;9.318;2022-10-04T04:56:39;5.93;;;5.10;;
1336;SDS011;662;48.814;9.318;2022-10-04T04:59:07;17.40;;;6.13;;
1336;SDS011;662;48.814;9.318;2022-10-04T05:01:43;44.67;;;7.70;;
1336;SDS011;662;48.814;9.318;2022-10-04T05:06:37;22.20;;;6.67;;
1336;SDS011;662;48.814;9.318;2022-10-04T05:09:21;24.83;;;7.00;;
1336;SDS011;662;48.814;9.318;2022-10-04T05:11:47;31.60;;;6.73;;
1336;SDS011;662;48.814;9.318;2022-10-04T05:14:14;37.77;;;7.90;;
1336;SDS011;662;48.814;9.318;2022-10-04T05:16:48;21.23;;;7.67;;
1336;SDS011;662;48.814;9.318;2022-10-04T05:21:52;7.57;;;6.87;;
1336;SDS011;662;48.814;9.318;2022-10-04T05:24:23;10.20;;;6.30;;
1336;SDS011;662;48.814;9.318;2022-10-04T05:27:00;12.00;;;7.60;;
1336;SDS011;662;48.814;9.318;2022-10-04T05:29:33;15.27;;;7.13;;
1336;SDS011;662;48.814;9.318;2022-10-04T05:34:50;15.87;;;6.93;;
1336;SDS011;662;48.814;9.318;2022-10-04T05:40:26;19.50;;;6.03;;
1336;SDS011;662;48.814;9.318;2022-10-04T05:46:12;10.20;;;7.77;;
1336;SDS011;662;48.814;9.318;2022-10-04T05:48:52;8.53;;;6.57;;
1336;SDS011;662;48.814;9.318;2022-10-04T05:51:27;22.60;;;8.53;;
1336;SDS011;662;48.814;9.318;2022-10-04T05:53:55;23.30;;;9.47;;
1336;SDS011;662;48.814;9.318;2022-10-04T06:04:47;22.57;;;9.90;;
1336;SDS011;662;48.814;9.318;2022-10-04T06:07:28;10.63;;;8.10;;
1336;SDS011;662;48.814;9.318;2022-10-04T06:10:25;11.17;;;8.33;;
1336;SDS011;662;48.814;9.318;2022-10-04T06:16:06;7.50;;;6.03;;
1336;SDS011;662;48.814;9.318;2022-10-04T06:21:26;7.10;;;6.50;;
1336;SDS011;662;48.814;9.318;2022-10-04T06:26:26;6.80;;;6.10;;
1336;SDS011;662;48.814;9.318;2022-10-04T06:29:10;5.63;;;5.20;;
1336;SDS011;662;48.814;9.318;2022-10-04T06:37:48;6.10;;;5.50;;
1336;SDS011;662;48.814;9.318;2022-10-04T06:46:42;6.17;;;5.57;;
1336;SDS011;662;48.814;9.318;2022-10-04T07:08:11;9.60;;;7.93;;
1336;SDS011;662;48.814;9.318;2022-10-04T07:10:55;8.07;;;7.27;;
1336;SDS011;662;48.814;9.318;2022-10-04T07:21:42;8.97;;;8.17;;
1336;SDS011;662;48.814;9.318;2022-10-04T07:24:12;7.60;;;6.83;;
1336;SDS011;662;48.814;9.318;2022-10-04T07:26:48;10.23;;;6.63;;
1336;SDS011;662;48.814;9.318;2022-10-04T07:29:24;7.27;;;6.57;;
1336;SDS011;662;48.814;9.318;2022-10-04T07:34:30;7.13;;;6.33;;
1336;SDS011;662;48.814;9.318;2022-10-04T07:37:06;7.00;;;6.30;;
1336;SDS011;662;48.814;9.318;2022-10-04T07:42:26;7.40;;;6.70;;
1336;SDS011;662;48.814;9.318;2022-10-04T07:47:34;8.90;;;6.10;;
1336;SDS011;662;48.814;9.318;2022-10-04T07:50:12;9.27;;;8.47;;
1336;SDS011;662;48.814;9.318;2022-10-04T07:52:51;10.27;;;9.30;;
1336;SDS011;662;48.814;9.318;2022-10-04T07:55:25;6.90;;;6.20;;
1336;SDS011;662;48.814;9.318;2022-10-04T08:08:34;8.70;;;7.60;;
1336;SDS011;662;48.814;9.318;2022-10-04T08:16:43;10.43;;;8.47;;
1336;SDS011;662;48.814;9.318;2022-10-04T08:24:37;9.37;;;7.60;;
1336;SDS011;662;48.814;9.318;2022-10-04T08:30:27;15.67;;;7.53;;
1336;SDS011;662;48.814;9.318;2022-10-04T08:36:16;10.90;;;7.70;;
1336;SDS011;662;48.814;9.318;2022-10-04T08:38:58;9.00;;;7.60;;
1336;SDS011;662;48.814;9.318;2022-10-04T08:44:04;8.53;;;7.13;;
1336;SDS011;662;48.814;9.318;2022-10-04T08:52:44;5.23;;;4.73;;
1336;SDS011;662;48.814;9.318;2022-10-04T09:00:56;5.70;;;5.20;;
1336;SDS011;662;48.814;9.318;2022-10-04T09:30:21;5.80;;;4.70;;
1336;SDS011;662;48.814;9.318;2022-10-04T09:38:31;5.27;;;4.50;;
1336;SDS011;662;48.814;9.318;2022-10-04T09:47:29;5.30;;;3.67;;
1336;SDS011;662;48.814;9.318;2022-10-04T09:56:03;6.90;;;3.63;;
1336;SDS011;662;48.814;9.318;2022-10-04T10:11:01;6.87;;;3.37;;
1336;SDS011;662;48.814;9.318;2022-10-04T10:22:07;6.83;;;3.30;;
1336;SDS011;662;48.814;9.318;2022-10-04T10:36:12;9.77;;;3.80;;
1336;SDS011;662;48.814;9.318;2022-10-04T10:38:53;10.03;;;4.10;;
1336;SDS011;662;48.814;9.318;2022-10-04T10:41:44;5.60;;;3.60;;
1336;SDS011;662;48.814;9.318;2022-10-04T10:56:01;5.50;;;3.70;;
1336;SDS011;662;48.814;9.318;2022-10-04T11:04:44;5.13;;;3.43;;
1336;SDS011;662;48.814;9.318;2022-10-04T11:52:01;4.27;;;2.40;;
1336;SDS011;662;48.814;9.318;2022-10-04T12:06:33;4.20;;;2.33;;
1336;SDS011;662;48.814;9.318;2022-10-04T12:09:18;6.33;;;2.40;;
1336;SDS011;662;48.814;9.318;2022-10-04T12:15:11;8.40;;;3.00;;
1336;SDS011;662;48.814;9.318;2022-10-04T12:31:20;3.33;;;2.67;;
1336;SDS011;662;48.814;9.318;2022-10-04T12:33:52;4.10;;;2.50;;
1336;SDS011;662;48.814;9.318;2022-10-04T12:42:06;3.13;;;2.67;;
1336;SDS011;662;48.814;9.318;2022-10-04T12:50:50;2.57;;;2.00;;
1336;SDS011;662;48.814;9.318;2022-10-04T12:56:35;2.73;;;2.50;;
1336;SDS011;662;48.814;9.318;2022-10-04T13:02:13;5.27;;;2.63;;
1336;SDS011;662;48.814;9.318;2022-10-04T13:04:47;2.90;;;2.50;;
1336;SDS011;662;48.814;9.318;2022-10-04T13:15:29;3.33;;;2.37;;
1336;SDS011;662;48.814;9.318;2022-10-04T13:18:24;3.50;;;2.40;;
1336;SDS011;662;48.814;9.318;2022-10-04T13:21:10;4.27;;;2.53;;
1336;SDS011;662;48.814;9.318;2022-10-04T13:35:54;2.50;;;2.30;;
1336;SDS011;662;48.814;9.318;2022-10-04T14:01:53;2.70;;;2.20;;
1336;SDS011;662;48.814;9.318;2022-10-04T14:24:56;2.23;;;2.00;;
1336;SDS011;662;48.814;9.318;2022-10-04T14:27:44;3.07;;;2.30;;
1336;SDS011;662;48.814;9.318;2022-10-04T14:39:08;3.60;;;2.67;;
1336;SDS011;662;48.814;9.318;2022-10-04T14:44:35;2.97;;;2.30;;
1336;SDS011;662;48.814;9.318;2022-10-04T14:50:05;2.50;;;2.27;;
1336;SDS011;662;48.814;9.318;2022-10-04T14:53:07;3.17;;;2.10;;
1336;SDS011;662;48.814;9.318;2022-10-04T14:55:55;4.13;;;2.10;;
1336;SDS011;662;48.814;9.318;2022-10-04T15:01:21;2.57;;;2.10;;
1336;SDS011;662;48.814;9.318;2022-10-04T15:06:41;2.07;;;1.90;;
1336;SDS011;662;48.814;9.318;2022-10-04T15:09:23;2.27;;;2.00;;
1336;SDS011;662;48.814;9.318;2022-10-04T15:14:41;3.20;;;2.10;;
1336;SDS011;662;48.814;9.318;2022-10-04T15:17:36;3.60;;;2.33;;
1336;SDS011;662;48.814;9.318;2022-10-04T15:25:35;4.63;;;1.97;;
1336;SDS011;662;48.814;9.318;2022-10-04T15:31:21;2.77;;;2.13;;
1336;SDS011;662;48.814;9.318;2022-10-04T15:39:06;3.00;;;2.60;;
1336;SDS011;662;48.814;9.318;2022-10-04T15:42:00;2.43;;;2.23;;
1336;SDS011;662;48.814;9.318;2022-10-04T15:48:19;2.50;;;2.00;;
1336;SDS011;662;48.814;9.318;2022-10-04T15:59:25;2.43;;;2.23;;
1336;SDS011;662;48.814;9.318;2022-10-04T16:04:42;3.80;;;1.87;;
1336;SDS011;662;48.814;9.318;2022-10-04T16:32:35;4.00;;;2.80;;
1336;SDS011;662;48.814;9.318;2022-10-04T16:51:36;5.50;;;4.17;;
1336;SDS011;662;48.814;9.318;2022-10-04T17:06:31;5.03;;;3.57;;
1336;SDS011;662;48.814;9.318;2022-10-04T17:12:16;3.43;;;3.10;;
1336;SDS011;662;48.814;9.318;2022-10-04T17:15:07;3.57;;;3.10;;
1336;SDS011;662;48.814;9.318;2022-10-04T17:53:40;6.63;;;5.70;;
1336;SDS011;662;48.814;9.318;2022-10-04T17:56:43;9.73;;;5.83;;
1336;SDS011;662;48.814;9.318;2022-10-04T17:59:19;7.87;;;6.60;;
1336;SDS011;662;48.814;9.318;2022-10-04T18:02:10;7.27;;;5.53;;
1336;SDS011;662;48.814;9.318;2022-10-04T18:04:38;7.40;;;5.67;;
1336;SDS011;662;48.814;9.318;2022-10-04T18:07:32;6.33;;;5.07;;
1336;SDS011;662;48.814;9.318;2022-10-04T18:10:23;7.30;;;5.13;;
1336;SDS011;662;48.814;9.318;2022-10-04T18:15:59;11.57;;;6.83;;
1336;SDS011;662;48.814;9.318;2022-10-04T18:18:28;9.23;;;5.30;;
1336;SDS011;662;48.814;9.318;2022-10-04T18:21:05;5.43;;;4.93;;
1336;SDS011;662;48.814;9.318;2022-10-04T18:23:56;5.30;;;4.80;;
1336;SDS011;662;48.814;9.318;2022-10-04T18:26:26;5.10;;;4.60;;
1336;SDS011;662;48.814;9.318;2022-10-04T18:28:53;6.83;;;4.80;;
1336;SDS011;662;48.814;9.318;2022-10-04T18:34:18;9.27;;;5.40;;
1336;SDS011;662;48.814;9.318;2022-10-04T18:37:37;4.73;;;4.23;;
1336;SDS011;662;48.814;9.318;2022-10-04T18:39:56;5.43;;;4.53;;
1336;SDS011;662;48.814;9.318;2022-10-04T18:42:34;5.10;;;4.60;;
1336;SDS011;662;48.814;9.318;2022-10-04T18:47:45;6.40;;;5.33;;
1336;SDS011;662;48.814;9.318;2022-10-04T18:55:40;6.13;;;5.53;;
1336;SDS011;662;48.814;9.318;2022-10-04T19:10:15;6.73;;;5.67;;
1336;SDS011;662;48.814;9.318;2022-10-04T19:16:05;7.87;;;6.40;;
1336;SDS011;662;48.814;9.318;2022-10-04T19:18:48;5.90;;;5.40;;
1336;SDS011;662;48.814;9.318;2022-10-04T19:46:45;6.20;;;5.40;;
1336;SDS011;662;48.814;9.318;2022-10-04T19:52:15;5.23;;;4.70;;
1336;SDS011;662;48.814;9.318;2022-10-04T19:54:46;5.90;;;5.33;;
1336;SDS011;662;48.814;9.318;2022-10-04T19:57:17;7.63;;;4.97;;
1336;SDS011;662;48.814;9.318;2022-10-04T19:59:50;4.80;;;4.40;;
1336;SDS011;662;48.814;9.318;2022-10-04T20:02:15;7.33;;;5.17;;
1336;SDS011;662;48.814;9.318;2022-10-04T20:04:41;4.17;;;3.77;;
1336;SDS011;662;48.814;9.318;2022-10-04T20:15:17;4.60;;;4.20;;
1336;SDS011;662;48.814;9.318;2022-10-04T20:17:47;7.27;;;4.43;;
1336;SDS011;662;48.814;9.318;2022-10-04T20:21:01;5.20;;;4.80;;
1336;SDS011;662;48.814;9.318;2022-10-04T20:23:02;5.93;;;5.33;;
1336;SDS011;662;48.814;9.318;2022-10-04T20:30:55;9.20;;;5.73;;
1336;SDS011;662;48.814;9.318;2022-10-04T20:34:20;5.47;;;4.97;;
1336;SDS011;662;48.814;9.318;2022-10-04T20:36:46;6.87;;;5.03;;
1336;SDS011;662;48.814;9.318;2022-10-04T20:45:00;7.63;;;4.83;;
1336;SDS011;662;48.814;9.318;2022-10-04T20:50:36;10.93;;;5.20;;
1336;SDS011;662;48.814;9.318;2022-10-04T20:53:26;7.40;;;6.13;;
1336;SDS011;662;48.814;9.318;2022-10-04T20:56:10;6.00;;;5.20;;
1336;SDS011;662;48.814;9.318;2022-10-04T20:58:57;5.87;;;5.30;;
1336;SDS011;662;48.814;9.318;2022-10-04T21:01:25;6.57;;;5.80;;
1336;SDS011;662;48.814;9.318;2022-10-04T21:04:13;5.70;;;5.20;;
1336;SDS011;662;48.814;9.318;2022-10-04T21:07:04;6.40;;;5.60;;
1336;SDS011;662;48.814;9.318;2022-10-04T21:09:31;6.27;;;5.67;;
1336;SDS011;662;48.814;9.318;2022-10-04T21:11:59;8.93;;;5.03;;
1336;SDS011;662;48.814;9.318;2022-10-04T21:14:29;8.27;;;4.70;;
1336;SDS011;662;48.814;9.318;2022-10-04T21:16:56;5.43;;;4.73;;
1336;SDS011;662;48.814;9.318;2022-10-04T21:21:58;5.50;;;4.90;;
1336;SDS011;662;48.814;9.318;2022-10-04T21:24:38;8.27;;;5.07;;
1336;SDS011;662;48.814;9.318;2022-10-04T21:27:09;5.93;;;4.70;;
1336;SDS011;662;48.814;9.318;2022-10-04T21:29:37;5.93;;;5.20;;
1336;SDS011;662;48.814;9.318;2022-10-04T21:32:03;5.37;;;4.87;;
1336;SDS011;662;48.814;9.318;2022-10-04T21:34:30;6.20;;;5.60;;
1336;SDS011;662;48.814;9.318;2022-10-04T21:36:56;5.90;;;5.40;;
1336;SDS011;662;48.814;9.318;2022-10-04T21:39:22;5.20;;;4.70;;
1336;SDS011;662;48.814;9.318;2022-10-04T21:41:48;5.50;;;5.00;;
1336;SDS011;662;48.814;9.318;2022-10-04T21:44:14;5.53;;;5.03;;
1336;SDS011;662;48.814;9.318;2022-10-04T21:46:40;5.30;;;4.80;;
1336;SDS011;662;48.814;9.318;2022-10-04T21:49:06;5.50;;;5.00;;
1336;SDS011;662;48.814;9.318;2022-10-04T21:51:32;5.10;;;4.63;;
1336;SDS011;662;48.814;9.318;2022-10-04T21:54:03;5.77;;;4.93;;
1336;SDS011;662;48.814;9.318;2022-10-04T21:56:29;5.13;;;4.73;;
1336;SDS011;662;48.814;9.318;2022-10-04T21:58:55;5.93;;;5.40;;
1336;SDS011;662;48.814;9.318;2022-10-04T22:01:20;5.60;;;5.10;;
1336;SDS011;662;48.814;9.318;2022-10-04T22:03:46;10.33;;;5.07;;
1336;SDS011;662;48.814;9.318;2022-10-04T22:06:12;7.47;;;4.73;;
1336;SDS011;662;48.814;9.318;2022-10-04T22:08:38;7.87;;;5.80;;
1336;SDS011;662;48.814;9.318;2022-10-04T22:11:03;8.77;;;5.53;;
1336;SDS011;662;48.814;9.318;2022-10-04T22:13:29;8.57;;;5.43;;
1336;SDS011;662;48.814;9.318;2022-10-04T22:15:55;5.80;;;5.30;;
1336;SDS011;662;48.814;9.318;2022-10-04T22:18:21;5.73;;;5.13;;
1336;SDS011;662;48.814;9.318;2022-10-04T22:20:46;5.97;;;5.37;;
1336;SDS011;662;48.814;9.318;2022-10-04T22:23:15;6.30;;;5.80;;
1336;SDS011;662;48.814;9.318;2022-10-04T22:25:44;5.70;;;5.10;;
1336;SDS011;662;48.814;9.318;2022-10-04T22:28:28;9.00;;;5.67;;
1336;SDS011;662;48.814;9.318;2022-10-04T22:30:54;6.33;;;5.73;;
1336;SDS011;662;48.814;9.318;2022-10-04T22:38:41;11.30;;;5.80;;
1336;SDS011;662;48.814;9.318;2022-10-04T22:41:12;8.00;;;5.20;;
1336;SDS011;662;48.814;9.318;2022-10-04T22:43:40;6.13;;;5.30;;
1336;SDS011;662;48.814;9.318;2022-10-04T22:46:11;8.23;;;5.60;;
1336;SDS011;662;48.814;9.318;2022-10-04T22:48:39;5.70;;;4.80;;
1336;SDS011;662;48.814;9.318;2022-10-04T22:51:07;5.83;;;5.20;;
1336;SDS011;662;48.814;9.318;2022-10-04T22:53:35;5.80;;;4.50;;
1336;SDS011;662;48.814;9.318;2022-10-04T22:56:05;7.40;;;4.73;;
1336;SDS011;662;48.814;9.318;2022-10-04T22:58:30;7.83;;;5.00;;
1336;SDS011;662;48.814;9.318;2022-10-04T23:00:56;6.30;;;4.60;;
1336;SDS011;662;48.814;9.318;2022-10-04T23:03:24;7.57;;;5.33;;
1336;SDS011;662;48.814;9.318;2022-10-04T23:05:51;8.33;;;4.93;;
1336;SDS011;662;48.814;9.318;2022-10-04T23:08:16;9.73;;;4.40;;
1336;SDS011;662;48.814;9.318;2022-10-04T23:10:43;5.20;;;4.70;;
1336;SDS011;662;48.814;9.318;2022-10-04T23:13:09;5.80;;;4.37;;
1336;SDS011;662;48.814;9.318;2022-10-04T23:15:35;5.93;;;4.70;;
1336;SDS011;662;48.814;9.318;2022-10-04T23:18:00;6.00;;;4.50;;
1336;SDS011;662;48.814;9.318;2022-10-04T23:20:34;5.70;;;4.80;;
1336;SDS011;662;48.814;9.318;2022-10-04T23:22:59;5.10;;;4.37;;
1336;SDS011;662;48.814;9.318;2022-10-04T23:25:27;5.53;;;5.03;;
1336;SDS011;662;48.814;9.318;2022-10-04T23:27:55;5.60;;;5.10;;
1336;SDS011;662;48.814;9.318;2022-10-04T23:30:24;5.57;;;5.07;;
1336;SDS011;662;48.814;9.318;2022-10-04T23:32:51;5.60;;;4.60;;
1336;SDS011;662;48.814;9.318;2022-10-04T23:35:24;4.87;;;4.20;;
1336;SDS011;662;48.814;9.318;2022-10-04T23:37:54;6.73;;;4.60;;
1336;SDS011;662;48.814;9.318;2022-10-04T23:40:21;4.80;;;4.40;;
1336;SDS011;662;48.814;9.318;2022-10-04T23:42:49;8.30;;;4.43;;
1336;SDS011;662;48.814;9.318;2022-10-04T23:45:20;5.33;;;4.80;;
1336;SDS011;662;48.814;9.318;2022-10-04T23:47:48;5.07;;;4.57;;
1336;SDS011;662;48.814;9.318;2022-10-04T23:52:46;4.90;;;4.50;;
1336;SDS011;662;48.814;9.318;2022-10-04T23:55:35;5.67;;;4.77;;
1336;SDS011;662;48.814;9.318;2022-10-04T23:58:13;5.47;;;4.90;;
